Time;durP1;ratioP1;P1;durP2;ratioP2;P2;SDS_P1;SDS_P2;PMS_P1;PMS_P2;Temp;Humidity;BMP_temperature;BMP_pressure;BME280_temperature;BME280_humidity;BME280_pressure;Samples;Min_cycle;Max_cycle;Signal;HPM_P1;HPM_P2
2021/04/14 00:00:54;;;;;;;14.47;10.03;;;-1.10;99.90;;;;;;4981158;28;20454;-78
2021/04/14 00:03:23;;;;;;;14.90;10.33;;;-1.10;99.90;;;;;;4981133;28;20180;-78
2021/04/14 00:05:49;;;;;;;15.77;11.10;;;-1.00;99.90;;;;;;4996209;28;20177;-78
2021/04/14 00:08:17;;;;;;;17.73;11.27;;;-1.10;99.90;;;;;;4981167;28;20435;-78
2021/04/14 00:10:44;;;;;;;15.00;10.60;;;-1.10;99.90;;;;;;4982523;28;20443;-78
2021/04/14 00:13:18;;;;;;;15.63;10.97;;;-1.10;99.90;;;;;;4981433;28;20395;-78
2021/04/14 00:15:48;;;;;;;15.23;10.33;;;-1.10;99.90;;;;;;4987986;28;20391;-79
2021/04/14 00:18:14;;;;;;;16.50;10.73;;;-1.10;99.90;;;;;;4994222;28;20522;-78
2021/04/14 00:20:40;;;;;;;16.67;10.57;;;-1.10;99.90;;;;;;4978599;28;20935;-78
2021/04/14 00:23:08;;;;;;;18.57;10.27;;;-1.00;99.90;;;;;;4978517;28;20407;-78
2021/04/14 00:25:37;;;;;;;16.73;11.33;;;-1.10;99.90;;;;;;4977080;28;20184;-78
2021/04/14 00:28:03;;;;;;;15.33;10.30;;;-1.10;99.90;;;;;;4978307;28;20521;-78
2021/04/14 00:30:29;;;;;;;17.50;11.13;;;-1.10;99.90;;;;;;4993244;28;20420;-78
2021/04/14 00:32:55;;;;;;;18.50;12.20;;;-1.20;99.90;;;;;;4977240;28;20212;-78
2021/04/14 00:35:23;;;;;;;20.10;11.30;;;-1.20;99.90;;;;;;4978128;28;20182;-78
2021/04/14 00:37:49;;;;;;;16.67;11.10;;;-1.20;99.90;;;;;;4977303;28;20816;-78
2021/04/14 00:40:26;;;;;;;17.10;11.63;;;-1.30;99.90;;;;;;4978093;28;20414;-78
2021/04/14 00:42:52;;;;;;;17.53;12.07;;;-1.20;99.90;;;;;;4991763;28;20446;-78
2021/04/14 00:45:18;;;;;;;18.20;11.93;;;-1.20;99.90;;;;;;4989856;28;20439;-78
2021/04/14 00:47:44;;;;;;;18.20;12.13;;;-1.20;99.90;;;;;;4979083;28;20484;-78
2021/04/14 00:50:11;;;;;;;19.60;11.83;;;-1.20;99.90;;;;;;4979283;28;20250;-78
2021/04/14 00:52:37;;;;;;;18.53;12.60;;;-1.20;99.90;;;;;;4980322;28;20248;-78
2021/04/14 00:55:06;;;;;;;17.47;11.83;;;-1.20;99.90;;;;;;4979877;28;20411;-78
2021/04/14 00:57:32;;;;;;;16.80;11.20;;;-1.20;99.90;;;;;;4976394;28;20215;-78
2021/04/14 00:59:57;;;;;;;19.37;12.33;;;-1.20;99.90;;;;;;4977644;28;20502;-78
2021/04/14 01:02:23;;;;;;;17.70;12.70;;;-1.30;99.90;;;;;;4977619;28;20218;-78
2021/04/14 01:04:48;;;;;;;17.50;12.63;;;-1.30;99.90;;;;;;4977050;28;20218;-78
2021/04/14 01:07:14;;;;;;;19.80;11.97;;;-1.30;99.90;;;;;;4978343;28;20208;-78
2021/04/14 01:09:40;;;;;;;15.30;10.97;;;-1.30;99.90;;;;;;4976746;28;20279;-78
2021/04/14 01:12:06;;;;;;;19.63;11.67;;;-1.40;99.90;;;;;;4977583;28;20180;-78
2021/04/14 01:14:32;;;;;;;17.10;11.70;;;-1.40;99.90;;;;;;4977076;28;20526;-78
2021/04/14 01:16:57;;;;;;;19.30;12.27;;;-1.40;99.90;;;;;;4977134;28;20436;-78
2021/04/14 01:19:23;;;;;;;17.90;12.40;;;-1.30;99.90;;;;;;4977209;28;20183;-78
2021/04/14 01:21:49;;;;;;;18.30;11.63;;;-1.40;99.90;;;;;;4977833;28;20180;-78
2021/04/14 01:24:17;;;;;;;16.30;11.07;;;-1.40;99.90;;;;;;4976959;28;20544;-78
2021/04/14 01:26:43;;;;;;;15.33;10.87;;;-1.40;99.90;;;;;;4975985;28;20686;-78
2021/04/14 01:29:10;;;;;;;17.33;11.70;;;-1.50;99.90;;;;;;4977374;28;20411;-78
2021/04/14 01:31:36;;;;;;;16.10;11.57;;;-1.60;99.90;;;;;;4977401;28;20968;-78
2021/04/14 01:34:13;;;;;;;18.60;11.77;;;-1.50;99.90;;;;;;4975846;28;20486;-79
2021/04/14 01:36:39;;;;;;;18.37;11.23;;;-1.60;99.90;;;;;;4977145;28;20402;-78
2021/04/14 01:39:07;;;;;;;17.77;10.33;;;-1.60;99.90;;;;;;4977146;28;20495;-78
2021/04/14 01:41:33;;;;;;;16.17;10.77;;;-1.60;99.90;;;;;;4977289;28;20172;-78
2021/04/14 01:43:59;;;;;;;17.70;11.37;;;-1.70;99.90;;;;;;4977271;28;20557;-78
2021/04/14 01:46:25;;;;;;;17.30;11.30;;;-1.70;99.90;;;;;;4976826;28;20542;-78
2021/04/14 01:48:51;;;;;;;14.83;10.07;;;-1.70;99.90;;;;;;4976686;28;20184;-78
2021/04/14 01:51:17;;;;;;;13.60;9.00;;;-1.80;99.90;;;;;;4976340;28;20403;-78
2021/04/14 01:53:43;;;;;;;14.37;10.27;;;-1.80;99.90;;;;;;4977221;28;20407;-78
2021/04/14 01:56:10;;;;;;;14.77;9.93;;;-1.90;99.90;;;;;;4976919;28;20183;-78
2021/04/14 01:58:35;;;;;;;14.43;8.90;;;-1.90;99.90;;;;;;4975881;28;20212;-78
2021/04/14 02:01:06;;;;;;;13.33;10.23;;;-1.90;99.90;;;;;;4975480;28;20434;-78
2021/04/14 02:03:36;;;;;;;13.67;8.87;;;-1.90;99.90;;;;;;4977077;28;20160;-78
2021/04/14 02:06:02;;;;;;;18.40;10.73;;;-2.00;99.90;;;;;;4976534;28;20514;-78
2021/04/14 02:08:28;;;;;;;12.57;8.77;;;-2.00;99.90;;;;;;4976788;28;20518;-78
2021/04/14 02:10:54;;;;;;;15.87;10.63;;;-2.00;99.90;;;;;;4976942;28;20462;-78
2021/04/14 02:13:30;;;;;;;16.30;9.80;;;-2.00;99.90;;;;;;4976936;28;20255;-78
2021/04/14 02:15:56;;;;;;;12.80;9.37;;;-2.00;99.90;;;;;;4976661;28;20168;-78
2021/04/14 02:18:22;;;;;;;16.20;10.93;;;-2.00;99.90;;;;;;4976994;28;20793;-78
2021/04/14 02:20:48;;;;;;;14.70;9.43;;;-2.00;99.90;;;;;;4976904;28;20180;-78
2021/04/14 02:23:31;;;;;;;14.10;8.83;;;-2.10;99.90;;;;;;4976796;28;20419;-78
2021/04/14 02:26:01;;;;;;;16.53;10.53;;;-2.10;99.90;;;;;;4976428;28;20400;-78
2021/04/14 02:28:27;;;;;;;14.07;9.73;;;-2.10;99.90;;;;;;4975392;28;20440;-78
2021/04/14 02:30:53;;;;;;;17.90;10.63;;;-2.10;99.90;;;;;;4976990;28;20950;-78
2021/04/14 02:33:19;;;;;;;17.20;9.53;;;-2.10;99.90;;;;;;4975328;28;20180;-78
2021/04/14 02:35:46;;;;;;;13.50;9.47;;;-2.10;99.90;;;;;;4975569;28;20206;-78
2021/04/14 02:38:12;;;;;;;14.50;9.83;;;-2.10;99.90;;;;;;4976428;28;20447;-78
2021/04/14 02:40:38;;;;;;;13.90;10.00;;;-2.10;99.90;;;;;;4975518;28;20498;-78
2021/04/14 02:43:07;;;;;;;13.10;9.57;;;-2.10;99.90;;;;;;4976770;28;20917;-78
2021/04/14 02:45:35;;;;;;;13.60;10.03;;;-2.20;99.90;;;;;;4977669;28;20261;-78
2021/04/14 02:48:02;;;;;;;15.73;10.63;;;-2.20;99.90;;;;;;4977050;28;20502;-78
2021/04/14 02:50:28;;;;;;;18.50;11.17;;;-2.20;99.90;;;;;;4976185;28;20487;-78
2021/04/14 02:52:55;;;;;;;17.60;11.23;;;-2.20;99.90;;;;;;4976034;28;20431;-78
2021/04/14 02:55:23;;;;;;;18.87;12.70;;;-2.10;99.90;;;;;;4977724;28;20423;-78
2021/04/14 02:57:48;;;;;;;15.67;10.77;;;-2.20;99.90;;;;;;4977140;28;20853;-78
2021/04/14 03:00:16;;;;;;;19.10;11.87;;;-2.10;99.90;;;;;;4976360;28;20414;-78
2021/04/14 03:02:42;;;;;;;20.10;12.03;;;-2.20;99.90;;;;;;4977785;28;20535;-78
2021/04/14 03:05:10;;;;;;;18.63;12.40;;;-2.10;99.90;;;;;;4977661;28;20407;-78
2021/04/14 03:07:36;;;;;;;19.23;11.80;;;-2.10;99.90;;;;;;4977893;28;20210;-79
2021/04/14 03:10:02;;;;;;;17.40;11.47;;;-2.10;99.90;;;;;;4978676;28;20495;-78
2021/04/14 03:12:28;;;;;;;18.10;11.80;;;-2.10;99.90;;;;;;4977456;28;20180;-78
2021/04/14 03:14:55;;;;;;;17.67;12.07;;;-2.00;99.90;;;;;;4978363;28;20458;-78
2021/04/14 03:17:21;;;;;;;16.63;10.33;;;-2.10;99.90;;;;;;4978528;28;20209;-79
2021/04/14 03:19:46;;;;;;;16.63;10.40;;;-2.10;99.90;;;;;;4979416;28;20404;-79
2021/04/14 03:22:18;;;;;;;17.73;11.20;;;-2.20;99.90;;;;;;4979949;28;20177;-79
2021/04/14 03:24:44;;;;;;;15.33;10.83;;;-2.20;99.90;;;;;;4978498;28;20204;-79
2021/04/14 03:27:10;;;;;;;16.57;11.63;;;-2.10;99.90;;;;;;4979452;28;20796;-79
2021/04/14 03:29:35;;;;;;;19.20;12.20;;;-2.10;99.90;;;;;;4980262;28;20172;-79
2021/04/14 03:32:03;;;;;;;19.23;11.67;;;-2.10;99.90;;;;;;4979662;28;20214;-79
2021/04/14 03:34:29;;;;;;;17.60;11.23;;;-2.10;99.90;;;;;;4977629;28;20170;-79
2021/04/14 03:36:54;;;;;;;18.43;11.70;;;-2.10;99.90;;;;;;4975913;28;20447;-78
2021/04/14 03:39:20;;;;;;;21.00;11.63;;;-2.10;99.90;;;;;;4976122;28;20254;-78
2021/04/14 03:41:46;;;;;;;20.20;12.17;;;-1.80;99.90;;;;;;4976225;28;20173;-78
2021/04/14 03:44:12;;;;;;;18.53;12.83;;;-2.10;99.90;;;;;;4976485;28;20168;-79
2021/04/14 03:46:38;;;;;;;18.83;12.13;;;-2.10;99.90;;;;;;4975819;28;20490;-79
2021/04/14 03:49:03;;;;;;;20.63;11.60;;;-2.00;99.90;;;;;;4976297;28;20184;-79
2021/04/14 03:51:29;;;;;;;21.53;12.23;;;-2.10;99.90;;;;;;4977861;28;20540;-79
2021/04/14 03:53:55;;;;;;;14.97;10.80;;;-2.20;99.90;;;;;;4993249;28;20574;-79
2021/04/14 03:56:24;;;;;;;18.57;12.20;;;-2.30;99.90;;;;;;4976454;28;20642;-79
2021/04/14 03:58:52;;;;;;;22.37;12.17;;;-2.30;99.90;;;;;;4977413;28;20339;-79
2021/04/14 04:01:29;;;;;;;16.63;11.30;;;-2.30;99.90;;;;;;4978148;28;20404;-79
2021/04/14 04:03:59;;;;;;;20.17;12.17;;;-2.40;99.90;;;;;;4977931;28;20420;-79
2021/04/14 04:06:25;;;;;;;18.87;12.83;;;-2.40;99.90;;;;;;4976735;28;20429;-78
2021/04/14 04:08:51;;;;;;;19.27;12.17;;;-2.40;99.90;;;;;;4974960;28;20949;-78
2021/04/14 04:11:19;;;;;;;22.50;12.63;;;-2.40;99.90;;;;;;4976251;28;20419;-78
2021/04/14 04:13:49;;;;;;;21.80;11.97;;;-2.40;99.90;;;;;;4978022;28;20415;-78
2021/04/14 04:16:15;;;;;;;18.20;11.27;;;-2.40;99.90;;;;;;4980554;28;20445;-79
2021/04/14 04:18:41;;;;;;;20.17;12.30;;;-2.50;99.90;;;;;;4995649;28;20975;-77
2021/04/14 04:21:09;;;;;;;17.37;11.43;;;-2.40;99.90;;;;;;4980037;28;20179;-78
2021/04/14 04:23:36;;;;;;;17.30;10.77;;;-2.40;99.90;;;;;;4977633;28;20414;-78
2021/04/14 04:26:02;;;;;;;21.87;12.93;;;-2.40;99.90;;;;;;4976003;28;20419;-77
2021/04/14 04:28:27;;;;;;;19.97;11.87;;;-2.40;99.90;;;;;;4976147;28;20435;-78
2021/04/14 04:30:53;;;;;;;21.27;13.60;;;-2.50;99.90;;;;;;4976101;28;20414;-77
2021/04/14 04:33:21;;;;;;;46.13;24.17;;;-2.50;99.90;;;;;;4977486;28;20188;-77
2021/04/14 04:35:47;;;;;;;36.77;19.27;;;-2.50;99.90;;;;;;4975860;28;20180;-78
2021/04/14 04:38:13;;;;;;;49.47;24.10;;;-2.50;99.90;;;;;;4975824;28;20470;-77
2021/04/14 04:40:39;;;;;;;48.07;23.80;;;-2.60;99.90;;;;;;4977272;28;20169;-77
2021/04/14 04:43:04;;;;;;;66.57;29.70;;;-2.50;99.90;;;;;;4976076;28;20545;-78
2021/04/14 04:45:33;;;;;;;56.07;26.50;;;-2.50;99.90;;;;;;4976093;28;20176;-78
2021/04/14 04:47:59;;;;;;;52.53;23.00;;;-2.50;99.90;;;;;;4977419;28;20748;-77
2021/04/14 04:50:27;;;;;;;31.07;15.67;;;-2.50;99.90;;;;;;4977485;28;20549;-78
2021/04/14 04:52:58;;;;;;;49.47;24.17;;;-2.60;99.90;;;;;;4977684;28;20823;-77
2021/04/14 04:55:24;;;;;;;20.43;12.83;;;-2.60;99.90;;;;;;4991891;28;20426;-77
2021/04/14 04:57:50;;;;;;;20.07;13.17;;;-2.70;99.90;;;;;;4975383;28;20928;-77
2021/04/14 05:00:18;;;;;;;19.37;12.23;;;-2.70;99.90;;;;;;4976760;28;20435;-77
2021/04/14 05:02:43;;;;;;;15.40;11.17;;;-2.70;99.90;;;;;;4976629;28;20771;-77
2021/04/14 05:05:13;;;;;;;15.10;10.00;;;-2.70;99.90;;;;;;4975223;28;20419;-77
2021/04/14 05:07:38;;;;;;;17.00;10.13;;;-2.70;99.90;;;;;;4974071;28;20231;-78
2021/04/14 05:10:05;;;;;;;14.33;10.00;;;-2.70;99.90;;;;;;4975471;28;20535;-77
2021/04/14 05:12:30;;;;;;;15.80;11.00;;;-2.70;99.90;;;;;;4976954;28;20195;-77
2021/04/14 05:14:56;;;;;;;17.60;11.37;;;-2.70;99.90;;;;;;4975088;28;20427;-77
2021/04/14 05:17:22;;;;;;;16.73;11.33;;;-2.60;99.90;;;;;;4976330;28;20234;-77
2021/04/14 05:19:47;;;;;;;23.63;13.03;;;-2.60;99.90;;;;;;4991246;28;20203;-77
2021/04/14 05:22:19;;;;;;;16.53;11.30;;;-2.50;99.90;;;;;;4976369;28;20270;-77
2021/04/14 05:24:45;;;;;;;19.13;12.63;;;-2.50;99.90;;;;;;4973878;28;20200;-77
2021/04/14 05:27:10;;;;;;;18.83;12.20;;;-2.40;99.90;;;;;;4976153;28;20945;-78
2021/04/14 05:29:36;;;;;;;15.77;10.67;;;-2.30;99.90;;;;;;4976476;28;20180;-78
2021/04/14 05:32:02;;;;;;;19.57;11.83;;;-2.30;99.90;;;;;;4977159;28;20184;-78
2021/04/14 05:34:28;;;;;;;23.73;12.13;;;-2.40;99.90;;;;;;4977315;28;20261;-78
2021/04/14 05:36:53;;;;;;;23.13;12.40;;;-2.30;99.90;;;;;;4978078;28;20196;-78
2021/04/14 05:39:19;;;;;;;20.93;11.17;;;-2.30;99.90;;;;;;4978133;28;20186;-78
2021/04/14 05:41:45;;;;;;;15.80;9.77;;;-2.40;99.90;;;;;;4978540;28;20178;-78
2021/04/14 05:44:11;;;;;;;16.27;10.90;;;-2.30;99.90;;;;;;4977302;28;20204;-78
2021/04/14 05:46:36;;;;;;;16.57;11.07;;;-2.30;99.90;;;;;;4977987;28;20538;-78
2021/04/14 05:49:02;;;;;;;16.53;10.03;;;-2.20;99.90;;;;;;4976321;28;20194;-78
2021/04/14 05:51:31;;;;;;;16.43;11.13;;;-2.20;99.90;;;;;;4977857;28;20274;-78
2021/04/14 05:53:56;;;;;;;21.33;12.60;;;-1.70;99.90;;;;;;4977751;28;20544;-78
2021/04/14 05:56:22;;;;;;;18.63;11.90;;;-2.00;99.90;;;;;;4976045;28;20546;-78
2021/04/14 05:58:49;;;;;;;18.40;11.83;;;-1.80;99.90;;;;;;4993358;28;20606;-78
2021/04/14 06:01:19;;;;;;;20.00;13.30;;;-1.70;99.90;;;;;;4978630;28;20412;-78
2021/04/14 06:03:45;;;;;;;18.80;12.37;;;-1.60;99.90;;;;;;4978725;28;20809;-78
2021/04/14 06:06:12;;;;;;;15.90;11.57;;;-1.50;99.90;;;;;;4977994;28;20462;-78
2021/04/14 06:08:38;;;;;;;17.97;11.50;;;-1.40;99.90;;;;;;4978574;28;20196;-78
2021/04/14 06:11:03;;;;;;;17.73;11.53;;;-1.30;99.90;;;;;;4978990;28;20404;-78
2021/04/14 06:13:30;;;;;;;26.80;11.90;;;-1.20;99.90;;;;;;4979041;28;20176;-79
2021/04/14 06:15:56;;;;;;;16.60;12.07;;;-1.20;99.90;;;;;;4979985;28;20179;-79
2021/04/14 06:18:22;;;;;;;16.20;11.90;;;-1.00;99.90;;;;;;4978827;28;20455;-78
2021/04/14 06:20:47;;;;;;;16.57;11.40;;;-0.80;99.90;;;;;;4977354;28;20193;-78
2021/04/14 06:23:17;;;;;;;16.13;10.23;;;-0.60;99.90;;;;;;4978557;28;20263;-78
2021/04/14 06:28:28;;;;;;;14.80;10.43;;;-0.50;99.90;;;;;;4979042;28;20462;-78
2021/04/14 06:30:55;;;;;;;14.90;9.77;;;-0.50;99.90;;;;;;4979452;28;20485;-78
2021/04/14 06:33:22;;;;;;;14.37;10.50;;;-0.60;99.90;;;;;;4979679;28;20423;-78
2021/04/14 06:35:49;;;;;;;13.50;10.10;;;-0.60;99.90;;;;;;4980412;28;20434;-78
2021/04/14 06:38:18;;;;;;;14.07;10.10;;;-0.60;99.90;;;;;;4980569;28;20471;-78
2021/04/14 06:43:45;;;;;;;15.57;11.13;;;-0.30;99.90;;;;;;4981894;28;20387;-78
2021/04/14 06:46:19;;;;;;;12.73;9.53;;;-0.20;99.90;;;;;;4978118;28;20403;-78
2021/04/14 06:49:10;;;;;;;16.43;11.57;;;0.00;99.90;;;;;;4976340;28;20435;-79
2021/04/14 06:51:48;;;;;;;14.13;10.10;;;0.10;99.90;;;;;;4975621;28;20427;-79
2021/04/14 06:54:19;;;;;;;15.40;9.97;;;0.20;99.90;;;;;;4979040;28;20404;-78
2021/04/14 06:56:49;;;;;;;19.93;11.20;;;0.30;99.90;;;;;;4977088;28;20479;-79
2021/04/14 06:59:19;;;;;;;16.33;9.93;;;0.50;99.90;;;;;;4993435;28;20455;-79
2021/04/14 07:01:49;;;;;;;15.83;8.63;;;0.60;99.90;;;;;;4978061;28;20426;-79
2021/04/14 07:04:47;;;;;;;11.60;8.33;;;0.70;99.90;;;;;;4978703;28;20897;-79
2021/04/14 07:07:24;;;;;;;12.27;7.93;;;0.90;99.90;;;;;;4977486;28;20511;-79
2021/04/14 07:09:53;;;;;;;11.87;8.27;;;1.10;99.90;;;;;;4977572;28;20408;-78
2021/04/14 07:12:21;;;;;;;8.97;7.23;;;1.30;99.90;;;;;;4977480;28;20956;-78
2021/04/14 07:14:50;;;;;;;10.47;7.30;;;1.60;99.90;;;;;;4976969;28;20486;-79
2021/04/14 07:17:27;;;;;;;11.57;7.73;;;1.90;99.90;;;;;;4977324;28;20483;-79
2021/04/14 07:20:18;;;;;;;8.87;5.97;;;2.10;99.90;;;;;;4977306;28;20470;-79
2021/04/14 07:23:05;;;;;;;7.73;6.13;;;2.70;99.90;;;;;;4978065;28;20396;-79
2021/04/14 07:26:05;;;;;;;8.57;6.10;;;3.60;99.90;;;;;;4978160;28;20479;-79
2021/04/14 07:28:45;;;;;;;9.47;6.27;;;4.40;99.90;;;;;;4977756;28;20953;-78
2021/04/14 07:31:32;;;;;;;7.67;5.33;;;5.20;99.90;;;;;;4977667;28;20391;-78
2021/04/14 07:34:41;;;;;;;9.13;5.67;;;5.90;99.90;;;;;;4976663;28;20172;-79
2021/04/14 07:37:30;;;;;;;8.10;5.50;;;6.40;99.90;;;;;;4955093;28;20235;-79
2021/04/14 07:40:28;;;;;;;7.40;5.20;;;7.00;99.90;;;;;;4976412;28;20271;-79
2021/04/14 07:43:03;;;;;;;6.87;4.90;;;7.40;99.90;;;;;;4976383;28;20682;-78
2021/04/14 07:45:36;;;;;;;5.37;4.80;;;7.60;99.90;;;;;;4978020;28;20172;-79
2021/04/14 07:48:08;;;;;;;8.00;4.70;;;8.00;99.90;;;;;;4976079;28;20240;-79
2021/04/14 07:50:41;;;;;;;6.40;4.27;;;8.50;99.90;;;;;;4979425;28;20184;-79
2021/04/14 07:53:20;;;;;;;7.10;4.57;;;8.90;99.90;;;;;;4980385;28;20173;-79
2021/04/14 07:55:47;;;;;;;9.27;4.87;;;8.80;99.90;;;;;;4981269;28;20200;-78
2021/04/14 07:58:23;;;;;;;5.67;3.83;;;8.90;99.90;;;;;;4979268;28;20218;-78
2021/04/14 08:00:48;;;;;;;4.50;3.20;;;8.90;99.90;;;;;;4979819;28;20183;-78
2021/04/14 08:03:28;;;;;;;4.60;3.10;;;9.30;98.30;;;;;;4980849;28;20172;-78
2021/04/14 08:06:07;;;;;;;3.93;2.27;;;8.70;96.40;;;;;;4981020;28;20186;-78
2021/04/14 08:08:33;;;;;;;4.17;2.67;;;7.90;98.30;;;;;;4979010;28;20572;-78
2021/04/14 08:11:04;;;;;;;5.57;2.57;;;7.20;98.40;;;;;;4979202;28;20184;-78
2021/04/14 08:13:35;;;;;;;3.93;3.03;;;7.90;99.90;;;;;;4981125;28;20560;-78
2021/04/14 08:16:17;;;;;;;4.47;2.30;;;8.20;99.10;;;;;;4978980;28;20175;-79
2021/04/14 08:18:58;;;;;;;5.40;3.00;;;8.40;96.80;;;;;;4980567;28;20278;-78
2021/04/14 08:22:00;;;;;;;4.23;2.83;;;8.30;96.30;;;;;;4980562;28;20229;-78
2021/04/14 08:24:34;;;;;;;5.33;2.50;;;7.70;96.20;;;;;;4973019;28;20600;-78
2021/04/14 08:27:15;;;;;;;4.57;2.70;;;6.80;97.00;;;;;;4979551;28;20724;-78
2021/04/14 08:29:41;;;;;;;4.37;2.67;;;6.00;98.20;;;;;;4980665;28;20623;-78
2021/04/14 08:32:14;;;;;;;5.43;2.70;;;5.60;97.50;;;;;;4979191;28;20548;-79
2021/04/14 08:34:52;;;;;;;5.40;2.50;;;7.10;99.90;;;;;;4980599;28;20164;-78
2021/04/14 08:37:21;;;;;;;4.40;2.50;;;8.30;99.90;;;;;;4980117;28;20243;-78
2021/04/14 08:39:58;;;;;;;5.17;2.50;;;9.70;96.50;;;;;;4980129;28;20173;-78
2021/04/14 08:42:27;;;;;;;4.33;2.07;;;10.10;93.80;;;;;;4980027;28;20195;-78
2021/04/14 08:45:14;;;;;;;3.07;2.00;;;9.40;91.60;;;;;;4978658;28;20184;-78
2021/04/14 08:48:05;;;;;;;4.57;2.53;;;8.00;89.60;;;;;;4980105;28;20342;-78
2021/04/14 08:50:35;;;;;;;4.03;2.67;;;8.30;93.30;;;;;;4978291;28;20537;-78
2021/04/14 08:53:11;;;;;;;5.83;2.27;;;8.80;91.70;;;;;;4978777;28;20275;-78
2021/04/14 08:55:37;;;;;;;4.63;2.70;;;9.20;93.40;;;;;;4980070;28;20174;-78
2021/04/14 08:58:04;;;;;;;4.23;2.70;;;9.10;91.00;;;;;;4980012;28;20247;-78
2021/04/14 09:00:29;;;;;;;3.23;2.43;;;7.80;91.70;;;;;;4979484;28;20187;-78
2021/04/14 09:03:02;;;;;;;7.97;3.10;;;7.10;92.50;;;;;;4980852;28;20523;-78
2021/04/14 09:05:32;;;;;;;4.33;2.70;;;7.50;95.20;;;;;;4980644;28;20176;-78
2021/04/14 09:08:00;;;;;;;3.70;2.10;;;7.50;93.30;;;;;;4979459;28;20219;-78
2021/04/14 09:10:32;;;;;;;3.50;2.17;;;8.00;92.00;;;;;;4979920;28;20177;-78
2021/04/14 09:13:01;;;;;;;3.93;2.50;;;7.30;91.50;;;;;;4979069;28;20176;-78
2021/04/14 09:15:29;;;;;;;3.90;2.40;;;6.70;92.10;;;;;;4977949;28;20616;-78
2021/04/14 09:18:04;;;;;;;3.33;2.57;;;6.00;94.90;;;;;;4978186;28;20220;-77
2021/04/14 09:20:35;;;;;;;5.53;2.57;;;5.80;94.70;;;;;;4976949;28;20163;-78
2021/04/14 09:23:17;;;;;;;5.60;2.20;;;5.60;95.20;;;;;;4976488;28;20203;-77
2021/04/14 09:25:46;;;;;;;2.30;2.10;;;5.70;95.30;;;;;;4975068;28;20180;-77
2021/04/14 09:28:45;;;;;;;4.77;2.60;;;6.90;97.40;;;;;;4976366;28;20676;-77
2021/04/14 09:31:15;;;;;;;4.00;2.17;;;8.50;93.70;;;;;;4976640;28;20172;-77
2021/04/14 09:33:42;;;;;;;3.60;2.13;;;9.10;91.60;;;;;;4975178;28;20255;-78
2021/04/14 09:36:14;;;;;;;3.93;2.17;;;9.40;93.40;;;;;;4976194;28;20542;-78
2021/04/14 09:38:50;;;;;;;2.70;2.13;;;9.60;90.40;;;;;;4974987;28;20204;-78
2021/04/14 09:41:24;;;;;;;4.57;2.30;;;9.70;91.60;;;;;;4976807;28;20188;-78
2021/04/14 09:43:52;;;;;;;2.47;1.53;;;9.40;81.40;;;;;;4976314;28;20198;-78
2021/04/14 09:46:34;;;;;;;4.77;2.20;;;9.20;78.20;;;;;;4974890;28;20218;-78
2021/04/14 09:49:11;;;;;;;2.77;1.83;;;8.50;84.80;;;;;;4976301;28;20204;-78
2021/04/14 09:51:39;;;;;;;3.60;2.53;;;8.60;85.00;;;;;;4974952;28;20197;-78
2021/04/14 09:54:14;;;;;;;2.63;2.10;;;8.60;84.90;;;;;;4976828;28;20173;-79
2021/04/14 09:56:52;;;;;;;4.20;2.30;;;9.00;82.20;;;;;;4975136;28;20323;-78
2021/04/14 09:59:20;;;;;;;3.60;2.00;;;8.40;81.30;;;;;;4975401;28;20176;-78
2021/04/14 10:01:49;;;;;;;2.90;2.30;;;7.60;83.00;;;;;;4975154;28;20176;-77
2021/04/14 10:04:24;;;;;;;2.33;2.07;;;7.10;87.70;;;;;;4975922;28;20270;-78
2021/04/14 10:07:18;;;;;;;2.90;2.00;;;6.70;89.00;;;;;;4976275;28;20670;-78
2021/04/14 10:09:44;;;;;;;5.30;3.00;;;6.50;91.80;;;;;;4967560;28;20196;-77
2021/04/14 10:12:36;;;;;;;3.60;2.00;;;6.10;91.80;;;;;;4973797;28;20634;-77
2021/04/14 10:15:05;;;;;;;3.03;1.90;;;5.70;94.40;;;;;;4973559;28;20227;-77
2021/04/14 10:17:32;;;;;;;4.87;2.07;;;5.50;96.50;;;;;;4975503;28;20212;-77
2021/04/14 10:20:18;;;;;;;3.50;2.17;;;5.30;96.20;;;;;;4974782;28;20176;-79
2021/04/14 10:22:49;;;;;;;3.57;2.20;;;5.30;96.50;;;;;;4975899;28;20213;-77
2021/04/14 10:25:24;;;;;;;3.00;2.10;;;5.20;97.20;;;;;;4974647;28;20212;-77
2021/04/14 10:28:01;;;;;;;3.80;2.40;;;5.40;96.90;;;;;;4975400;28;20215;-77
2021/04/14 10:30:28;;;;;;;4.97;2.57;;;5.50;97.40;;;;;;4975395;28;20611;-77
2021/04/14 10:33:04;;;;;;;3.53;2.23;;;5.70;94.60;;;;;;4974330;28;20275;-78
2021/04/14 10:35:30;;;;;;;3.57;2.30;;;5.90;96.40;;;;;;4974251;28;20190;-77
2021/04/14 10:37:56;;;;;;;3.83;2.23;;;6.40;95.10;;;;;;4974265;28;20219;-77
2021/04/14 10:40:36;;;;;;;3.70;2.37;;;7.10;97.60;;;;;;4976247;28;20261;-77
2021/04/14 10:43:23;;;;;;;2.00;1.80;;;7.40;93.80;;;;;;4975679;28;20183;-78
2021/04/14 10:46:18;;;;;;;3.60;1.87;;;7.80;94.20;;;;;;4975773;28;20172;-78
2021/04/14 10:48:47;;;;;;;1.97;1.60;;;8.50;93.50;;;;;;4975054;28;20216;-78
2021/04/14 10:51:26;;;;;;;7.33;2.00;;;9.00;94.00;;;;;;4974849;28;20187;-78
2021/04/14 10:53:55;;;;;;;6.33;2.00;;;9.60;93.70;;;;;;4976792;28;20173;-78
2021/04/14 10:56:31;;;;;;;2.13;1.73;;;9.10;86.70;;;;;;4976002;28;20234;-77
2021/04/14 10:59:04;;;;;;;6.27;1.90;;;8.10;88.20;;;;;;4973996;28;20200;-78
2021/04/14 11:01:36;;;;;;;3.63;2.17;;;8.00;90.80;;;;;;4975500;28;20180;-78
2021/04/14 11:04:11;;;;;;;5.57;2.10;;;8.60;93.80;;;;;;4975113;28;20328;-78
2021/04/14 11:06:37;;;;;;;2.83;2.20;;;9.30;90.70;;;;;;4976952;28;20165;-78
2021/04/14 11:09:06;;;;;;;2.77;2.10;;;9.40;85.10;;;;;;4976118;28;20241;-78
2021/04/14 11:11:37;;;;;;;4.40;2.30;;;8.90;86.60;;;;;;4978358;28;20226;-78
2021/04/14 11:14:07;;;;;;;2.80;2.17;;;8.40;87.90;;;;;;4980785;28;20552;-79
2021/04/14 11:16:37;;;;;;;5.00;2.90;;;7.80;89.30;;;;;;4980207;28;20201;-78
2021/04/14 11:19:13;;;;;;;3.73;2.37;;;7.80;90.50;;;;;;4978034;28;20196;-78
2021/04/14 11:21:39;;;;;;;5.03;2.00;;;8.30;92.00;;;;;;4977102;28;20248;-78
2021/04/14 11:24:10;;;;;;;5.63;2.10;;;9.10;83.10;;;;;;4980252;28;20180;-78
2021/04/14 11:26:38;;;;;;;4.97;2.23;;;9.10;81.90;;;;;;4981877;28;20185;-77
2021/04/14 11:29:04;;;;;;;4.57;2.23;;;9.50;89.80;;;;;;4981864;28;20184;-78
2021/04/14 11:31:37;;;;;;;7.77;2.30;;;10.00;88.70;;;;;;4981819;28;20186;-78
2021/04/14 11:34:24;;;;;;;3.33;1.70;;;10.20;86.90;;;;;;4980643;28;20662;-78
2021/04/14 11:37:13;;;;;;;3.73;1.93;;;9.70;81.70;;;;;;4980274;28;20199;-78
2021/04/14 11:39:51;;;;;;;3.03;1.67;;;9.10;78.70;;;;;;4951920;28;20196;-78
2021/04/14 11:42:20;;;;;;;3.80;1.90;;;9.00;80.60;;;;;;4980462;28;20600;-78
2021/04/14 11:44:53;;;;;;;3.93;1.77;;;8.60;75.20;;;;;;4980230;28;20195;-78
2021/04/14 11:47:34;;;;;;;3.03;2.00;;;7.90;81.00;;;;;;4980212;28;20215;-78
2021/04/14 11:50:28;;;;;;;2.97;1.80;;;7.30;85.00;;;;;;4980123;28;20222;-78
2021/04/14 11:52:59;;;;;;;6.27;2.30;;;6.80;85.20;;;;;;4978580;28;20215;-78
2021/04/14 11:55:34;;;;;;;4.07;1.90;;;6.40;85.80;;;;;;4977690;28;20540;-78
2021/04/14 11:58:05;;;;;;;2.67;2.10;;;6.00;86.30;;;;;;5003198;28;20249;-77
2021/04/14 12:00:36;;;;;;;3.93;2.47;;;5.60;90.60;;;;;;5017861;28;20270;-78
2021/04/14 12:03:18;;;;;;;4.13;2.27;;;5.10;92.40;;;;;;5017125;28;20205;-78
2021/04/14 12:05:45;;;;;;;4.60;2.57;;;4.80;95.30;;;;;;5016497;28;20183;-77
2021/04/14 12:08:10;;;;;;;2.87;2.40;;;4.60;96.30;;;;;;5017740;28;20195;-77
2021/04/14 12:10:36;;;;;;;2.70;2.00;;;4.40;95.50;;;;;;5016829;28;20663;-78
2021/04/14 12:13:02;;;;;;;4.37;2.50;;;4.00;95.30;;;;;;5017497;28;20667;-78
2021/04/14 12:15:28;;;;;;;2.53;1.90;;;3.90;94.70;;;;;;5017656;28;20188;-78
2021/04/14 12:17:53;;;;;;;2.53;2.30;;;3.70;95.10;;;;;;5016257;28;20224;-77
2021/04/14 12:20:19;;;;;;;2.50;2.30;;;3.80;95.00;;;;;;5017110;28;20267;-78
2021/04/14 12:22:45;;;;;;;4.00;3.03;;;3.70;96.10;;;;;;5032825;28;20253;-77
2021/04/14 12:25:12;;;;;;;2.30;2.10;;;3.40;99.70;;;;;;5016614;28;20181;-78
2021/04/14 12:27:38;;;;;;;2.73;2.13;;;3.10;99.90;;;;;;5015814;28;20204;-77
2021/04/14 12:30:05;;;;;;;2.80;2.47;;;2.80;99.90;;;;;;5017277;28;20186;-78
2021/04/14 12:32:31;;;;;;;3.93;2.30;;;2.50;99.90;;;;;;5015942;28;20188;-77
2021/04/14 12:34:57;;;;;;;4.70;3.40;;;2.40;99.90;;;;;;5016112;28;20235;-77
2021/04/14 12:37:23;;;;;;;2.93;2.43;;;2.40;99.90;;;;;;5016824;28;20223;-77
2021/04/14 12:39:48;;;;;;;3.53;2.67;;;2.40;99.90;;;;;;5016783;28;20180;-77
2021/04/14 12:42:15;;;;;;;3.57;2.50;;;2.40;99.90;;;;;;5016368;28;20175;-77
2021/04/14 12:44:40;;;;;;;4.17;2.47;;;2.40;99.90;;;;;;5017047;28;20171;-77
2021/04/14 12:47:14;;;;;;;3.13;2.60;;;2.70;99.90;;;;;;5016702;28;20192;-77
2021/04/14 12:49:42;;;;;;;4.93;3.10;;;2.80;99.90;;;;;;5015453;28;20264;-77
2021/04/14 12:52:17;;;;;;;3.97;2.53;;;3.10;99.90;;;;;;5014974;28;20176;-77
2021/04/14 12:54:42;;;;;;;4.50;2.77;;;3.40;99.90;;;;;;5015197;28;20516;-77
2021/04/14 12:57:20;;;;;;;5.23;2.57;;;3.70;99.90;;;;;;5015918;28;20703;-77
2021/04/14 13:00:06;;;;;;;3.37;2.67;;;3.90;99.90;;;;;;5016464;28;20162;-77
2021/04/14 13:03:04;;;;;;;4.70;2.70;;;4.00;99.90;;;;;;5015311;28;20179;-76